sensor_id;sensor_type;location;lat;lon;timestamp;pressure;altitude;pressure_sealevel;temperature;humidity
77454;BME280;66538;53.150;18.160;2023-05-29T00:00:45;101651.26;;;12.48;57.38
77454;BME280;66538;53.150;18.160;2023-05-29T00:03:24;101654.56;;;12.46;57.62
77454;BME280;66538;53.150;18.160;2023-05-29T00:05:51;101656.90;;;12.45;57.93
77454;BME280;66538;53.150;18.160;2023-05-29T00:08:17;101654.42;;;12.43;57.60
77454;BME280;66538;53.150;18.160;2023-05-29T00:10:44;101649.83;;;12.41;57.62
77454;BME280;66538;53.150;18.160;2023-05-29T00:13:11;101651.08;;;12.41;57.74
77454;BME280;66538;53.150;18.160;2023-05-29T00:15:38;101653.04;;;12.39;57.94
77454;BME280;66538;53.150;18.160;2023-05-29T00:18:04;101651.22;;;12.38;57.89
77454;BME280;66538;53.150;18.160;2023-05-29T00:20:31;101645.08;;;12.35;58.01
77454;BME280;66538;53.150;18.160;2023-05-29T00:23:01;101651.14;;;12.36;58.19
77454;BME280;66538;53.150;18.160;2023-05-29T00:25:32;101647.90;;;12.34;58.05
77454;BME280;66538;53.150;18.160;2023-05-29T00:27:59;101651.11;;;12.32;58.17
77454;BME280;66538;53.150;18.160;2023-05-29T00:30:26;101646.20;;;12.32;58.28
77454;BME280;66538;53.150;18.160;2023-05-29T00:32:52;101642.93;;;12.33;58.03
77454;BME280;66538;53.150;18.160;2023-05-29T00:35:20;101647.26;;;12.34;58.22
77454;BME280;66538;53.150;18.160;2023-05-29T00:37:47;101653.69;;;12.34;58.10
77454;BME280;66538;53.150;18.160;2023-05-29T00:40:13;101650.36;;;12.33;58.42
77454;BME280;66538;53.150;18.160;2023-05-29T00:42:40;101652.45;;;12.31;58.23
77454;BME280;66538;53.150;18.160;2023-05-29T00:45:07;101654.20;;;12.32;58.31
77454;BME280;66538;53.150;18.160;2023-05-29T00:47:34;101655.23;;;12.31;58.59
77454;BME280;66538;53.150;18.160;2023-05-29T00:50:01;101653.42;;;12.30;58.33
77454;BME280;66538;53.150;18.160;2023-05-29T00:52:29;101654.98;;;12.28;58.78
77454;BME280;66538;53.150;18.160;2023-05-29T00:54:56;101655.40;;;12.27;58.78
77454;BME280;66538;53.150;18.160;2023-05-29T00:57:23;101649.29;;;12.25;58.75
77454;BME280;66538;53.150;18.160;2023-05-29T00:59:50;101653.11;;;12.26;58.74
77454;BME280;66538;53.150;18.160;2023-05-29T01:02:18;101650.98;;;12.26;59.09
77454;BME280;66538;53.150;18.160;2023-05-29T01:04:46;101647.20;;;12.23;58.87
77454;BME280;66538;53.150;18.160;2023-05-29T01:07:12;101654.88;;;12.23;58.71
77454;BME280;66538;53.150;18.160;2023-05-29T01:09:41;101655.70;;;12.24;58.85
77454;BME280;66538;53.150;18.160;2023-05-29T01:12:33;101661.91;;;12.24;58.82
77454;BME280;66538;53.150;18.160;2023-05-29T01:15:18;101659.73;;;12.19;59.18
77454;BME280;66538;53.150;18.160;2023-05-29T01:20:28;101664.70;;;12.15;59.61
77454;BME280;66538;53.150;18.160;2023-05-29T01:28:35;101659.86;;;11.96;59.71
77454;BME280;66538;53.150;18.160;2023-05-29T01:31:04;101661.26;;;11.90;59.99
77454;BME280;66538;53.150;18.160;2023-05-29T01:33:32;101665.95;;;11.86;60.19
77454;BME280;66538;53.150;18.160;2023-05-29T01:35:59;101662.52;;;11.81;60.09
77454;BME280;66538;53.150;18.160;2023-05-29T01:38:26;101659.42;;;11.73;60.40
77454;BME280;66538;53.150;18.160;2023-05-29T01:40:52;101663.11;;;11.65;60.50
77454;BME280;66538;53.150;18.160;2023-05-29T01:43:19;101661.43;;;11.53;60.94
77454;BME280;66538;53.150;18.160;2023-05-29T01:45:45;101656.97;;;11.45;61.11
77454;BME280;66538;53.150;18.160;2023-05-29T01:48:13;101657.42;;;11.35;61.42
77454;BME280;66538;53.150;18.160;2023-05-29T01:50:40;101663.13;;;11.28;61.33
77454;BME280;66538;53.150;18.160;2023-05-29T01:53:10;101661.73;;;11.21;61.68
77454;BME280;66538;53.150;18.160;2023-05-29T01:55:36;101659.64;;;11.15;61.99
77454;BME280;66538;53.150;18.160;2023-05-29T01:58:04;101662.70;;;11.13;62.18
77454;BME280;66538;53.150;18.160;2023-05-29T02:00:32;101661.83;;;11.09;62.33
77454;BME280;66538;53.150;18.160;2023-05-29T02:02:58;101663.36;;;11.07;62.30
77454;BME280;66538;53.150;18.160;2023-05-29T02:05:25;101661.68;;;11.04;62.50
77454;BME280;66538;53.150;18.160;2023-05-29T02:07:51;101663.63;;;10.99;62.58
77454;BME280;66538;53.150;18.160;2023-05-29T02:10:18;101664.04;;;10.95;62.99
77454;BME280;66538;53.150;18.160;2023-05-29T02:12:45;101663.05;;;10.90;62.52
77454;BME280;66538;53.150;18.160;2023-05-29T02:15:11;101667.18;;;10.83;62.89
77454;BME280;66538;53.150;18.160;2023-05-29T02:17:38;101667.30;;;10.77;63.21
77454;BME280;66538;53.150;18.160;2023-05-29T02:20:05;101665.80;;;10.72;63.30
77454;BME280;66538;53.150;18.160;2023-05-29T02:22:33;101664.41;;;10.67;63.54
77454;BME280;66538;53.150;18.160;2023-05-29T02:24:59;101663.86;;;10.64;63.74
77454;BME280;66538;53.150;18.160;2023-05-29T02:27:26;101669.02;;;10.61;64.20
77454;BME280;66538;53.150;18.160;2023-05-29T02:29:53;101673.61;;;10.56;64.26
77454;BME280;66538;53.150;18.160;2023-05-29T02:32:21;101673.10;;;10.52;64.32
77454;BME280;66538;53.150;18.160;2023-05-29T02:34:49;101675.46;;;10.50;64.93
77454;BME280;66538;53.150;18.160;2023-05-29T02:37:16;101674.33;;;10.47;64.63
77454;BME280;66538;53.150;18.160;2023-05-29T02:39:43;101676.29;;;10.44;64.79
77454;BME280;66538;53.150;18.160;2023-05-29T02:42:10;101671.13;;;10.42;65.15
77454;BME280;66538;53.150;18.160;2023-05-29T02:44:36;101668.65;;;10.37;64.95
77454;BME280;66538;53.150;18.160;2023-05-29T02:47:03;101673.02;;;10.38;65.20
77454;BME280;66538;53.150;18.160;2023-05-29T02:49:30;101671.02;;;10.36;64.95
77454;BME280;66538;53.150;18.160;2023-05-29T02:51:57;101672.67;;;10.33;65.32
77454;BME280;66538;53.150;18.160;2023-05-29T02:54:24;101671.02;;;10.33;65.40
77454;BME280;66538;53.150;18.160;2023-05-29T02:56:52;101670.30;;;10.32;65.42
77454;BME280;66538;53.150;18.160;2023-05-29T02:59:19;101672.05;;;10.33;65.45
77454;BME280;66538;53.150;18.160;2023-05-29T03:01:45;101670.36;;;10.32;65.38
77454;BME280;66538;53.150;18.160;2023-05-29T03:04:14;101667.52;;;10.34;65.38
77454;BME280;66538;53.150;18.160;2023-05-29T03:06:40;101665.08;;;10.40;65.88
77454;BME280;66538;53.150;18.160;2023-05-29T03:09:07;101665.61;;;10.46;65.66
77454;BME280;66538;53.150;18.160;2023-05-29T03:11:34;101667.64;;;10.50;65.49
77454;BME280;66538;53.150;18.160;2023-05-29T03:14:02;101670.89;;;10.53;65.52
77454;BME280;66538;53.150;18.160;2023-05-29T03:16:28;101670.52;;;10.59;65.58
77454;BME280;66538;53.150;18.160;2023-05-29T03:18:55;101667.82;;;10.63;65.74
77454;BME280;66538;53.150;18.160;2023-05-29T03:21:22;101674.41;;;10.74;65.61
77454;BME280;66538;53.150;18.160;2023-05-29T03:23:49;101675.38;;;10.80;65.35
77454;BME280;66538;53.150;18.160;2023-05-29T03:26:17;101674.18;;;10.86;65.63
77454;BME280;66538;53.150;18.160;2023-05-29T03:28:43;101678.70;;;10.94;65.29
77454;BME280;66538;53.150;18.160;2023-05-29T03:31:10;101678.62;;;11.02;65.42
77454;BME280;66538;53.150;18.160;2023-05-29T03:33:37;101685.30;;;11.09;65.23
77454;BME280;66538;53.150;18.160;2023-05-29T03:36:18;101682.48;;;11.16;65.12
77454;BME280;66538;53.150;18.160;2023-05-29T03:38:45;101679.90;;;11.23;64.96
77454;BME280;66538;53.150;18.160;2023-05-29T03:41:12;101683.69;;;11.28;64.89
77454;BME280;66538;53.150;18.160;2023-05-29T03:43:38;101680.77;;;11.36;64.47
77454;BME280;66538;53.150;18.160;2023-05-29T03:46:05;101680.95;;;11.45;64.59
77454;BME280;66538;53.150;18.160;2023-05-29T03:48:32;101684.53;;;11.52;64.54
77454;BME280;66538;53.150;18.160;2023-05-29T03:50:59;101677.84;;;11.60;64.41
77454;BME280;66538;53.150;18.160;2023-05-29T03:53:34;101680.41;;;11.68;64.42
77454;BME280;66538;53.150;18.160;2023-05-29T03:56:01;101683.56;;;11.76;64.23
77454;BME280;66538;53.150;18.160;2023-05-29T03:58:28;101681.86;;;11.84;64.11
77454;BME280;66538;53.150;18.160;2023-05-29T04:00:56;101682.92;;;11.91;63.89
77454;BME280;66538;53.150;18.160;2023-05-29T04:03:22;101682.02;;;11.98;63.83
77454;BME280;66538;53.150;18.160;2023-05-29T04:05:49;101684.95;;;12.06;63.39
77454;BME280;66538;53.150;18.160;2023-05-29T04:08:16;101688.86;;;12.14;63.37
77454;BME280;66538;53.150;18.160;2023-05-29T04:10:43;101689.98;;;12.22;63.44
77454;BME280;66538;53.150;18.160;2023-05-29T04:13:10;101693.93;;;12.30;63.46
77454;BME280;66538;53.150;18.160;2023-05-29T04:15:38;101697.45;;;12.39;63.30
77454;BME280;66538;53.150;18.160;2023-05-29T04:18:05;101700.48;;;12.47;63.31
77454;BME280;66538;53.150;18.160;2023-05-29T04:20:33;101694.19;;;12.54;63.41
77454;BME280;66538;53.150;18.160;2023-05-29T04:23:02;101697.44;;;12.63;62.74
77454;BME280;66538;53.150;18.160;2023-05-29T04:25:29;101692.40;;;12.74;62.57
77454;BME280;66538;53.150;18.160;2023-05-29T04:27:56;101692.30;;;12.80;62.25
77454;BME280;66538;53.150;18.160;2023-05-29T04:30:22;101690.15;;;12.90;62.42
77454;BME280;66538;53.150;18.160;2023-05-29T04:32:49;101693.52;;;12.99;62.18
77454;BME280;66538;53.150;18.160;2023-05-29T04:35:15;101692.28;;;13.08;61.70
77454;BME280;66538;53.150;18.160;2023-05-29T04:37:50;101688.25;;;13.15;61.55
77454;BME280;66538;53.150;18.160;2023-05-29T04:40:17;101687.71;;;13.25;61.37
77454;BME280;66538;53.150;18.160;2023-05-29T04:42:44;101690.89;;;13.34;61.24
77454;BME280;66538;53.150;18.160;2023-05-29T04:45:12;101683.45;;;13.40;61.16
77454;BME280;66538;53.150;18.160;2023-05-29T04:47:39;101684.75;;;13.47;60.94
77454;BME280;66538;53.150;18.160;2023-05-29T04:50:13;101682.99;;;13.56;60.85
77454;BME280;66538;53.150;18.160;2023-05-29T04:52:40;101683.31;;;13.64;60.32
77454;BME280;66538;53.150;18.160;2023-05-29T04:55:09;101685.10;;;13.74;60.13
77454;BME280;66538;53.150;18.160;2023-05-29T04:57:39;101684.99;;;13.84;59.79
77454;BME280;66538;53.150;18.160;2023-05-29T05:00:08;101680.33;;;13.94;59.33
77454;BME280;66538;53.150;18.160;2023-05-29T05:02:42;101683.48;;;14.05;58.96
77454;BME280;66538;53.150;18.160;2023-05-29T05:05:12;101685.77;;;14.15;58.63
77454;BME280;66538;53.150;18.160;2023-05-29T05:07:39;101685.64;;;14.24;58.64
77454;BME280;66538;53.150;18.160;2023-05-29T05:10:07;101685.35;;;14.33;58.42
77454;BME280;66538;53.150;18.160;2023-05-29T05:12:34;101687.44;;;14.42;58.06
77454;BME280;66538;53.150;18.160;2023-05-29T05:15:02;101691.27;;;14.51;57.78
77454;BME280;66538;53.150;18.160;2023-05-29T05:17:29;101693.38;;;14.62;57.64
77454;BME280;66538;53.150;18.160;2023-05-29T05:19:56;101691.58;;;14.71;57.51
77454;BME280;66538;53.150;18.160;2023-05-29T05:22:22;101697.43;;;14.84;57.72
77454;BME280;66538;53.150;18.160;2023-05-29T05:24:49;101698.05;;;14.96;57.33
77454;BME280;66538;53.150;18.160;2023-05-29T05:27:16;101700.66;;;15.07;57.18
77454;BME280;66538;53.150;18.160;2023-05-29T05:29:43;101693.86;;;15.18;57.06
77454;BME280;66538;53.150;18.160;2023-05-29T05:32:10;101695.23;;;15.31;56.80
77454;BME280;66538;53.150;18.160;2023-05-29T05:34:37;101694.24;;;15.42;56.49
77454;BME280;66538;53.150;18.160;2023-05-29T05:37:04;101699.58;;;15.53;56.43
77454;BME280;66538;53.150;18.160;2023-05-29T05:39:31;101697.91;;;15.62;56.29
77454;BME280;66538;53.150;18.160;2023-05-29T05:41:58;101699.09;;;15.71;55.84
77454;BME280;66538;53.150;18.160;2023-05-29T05:44:44;101700.80;;;15.81;55.64
77454;BME280;66538;53.150;18.160;2023-05-29T05:47:13;101705.59;;;15.91;55.37
77454;BME280;66538;53.150;18.160;2023-05-29T05:49:40;101709.05;;;16.03;55.41
77454;BME280;66538;53.150;18.160;2023-05-29T05:52:07;101705.70;;;16.13;55.29
77454;BME280;66538;53.150;18.160;2023-05-29T05:54:34;101714.41;;;16.26;54.84
77454;BME280;66538;53.150;18.160;2023-05-29T05:57:01;101712.45;;;16.36;54.57
77454;BME280;66538;53.150;18.160;2023-05-29T05:59:29;101710.65;;;16.44;53.84
77454;BME280;66538;53.150;18.160;2023-05-29T06:01:56;101714.67;;;16.53;53.42
77454;BME280;66538;53.150;18.160;2023-05-29T06:04:23;101712.91;;;16.62;53.24
77454;BME280;66538;53.150;18.160;2023-05-29T06:06:50;101715.19;;;16.72;52.61
77454;BME280;66538;53.150;18.160;2023-05-29T06:09:16;101715.08;;;16.80;52.39
77454;BME280;66538;53.150;18.160;2023-05-29T06:11:44;101716.73;;;16.89;52.48
77454;BME280;66538;53.150;18.160;2023-05-29T06:14:11;101719.00;;;16.98;52.18
77454;BME280;66538;53.150;18.160;2023-05-29T06:16:38;101719.37;;;17.07;51.36
77454;BME280;66538;53.150;18.160;2023-05-29T06:19:04;101710.80;;;17.14;50.84
77454;BME280;66538;53.150;18.160;2023-05-29T06:21:35;101711.93;;;17.23;50.95
77454;BME280;66538;53.150;18.160;2023-05-29T06:24:02;101706.45;;;17.28;50.82
77454;BME280;66538;53.150;18.160;2023-05-29T06:26:29;101704.98;;;17.32;50.57
77454;BME280;66538;53.150;18.160;2023-05-29T06:28:56;101700.70;;;17.37;50.72
77454;BME280;66538;53.150;18.160;2023-05-29T06:31:22;101697.79;;;17.46;50.68
77454;BME280;66538;53.150;18.160;2023-05-29T06:33:49;101707.06;;;17.55;50.15
77454;BME280;66538;53.150;18.160;2023-05-29T06:36:17;101706.69;;;17.61;49.60
77454;BME280;66538;53.150;18.160;2023-05-29T06:38:47;101706.70;;;17.65;49.28
77454;BME280;66538;53.150;18.160;2023-05-29T06:41:14;101705.77;;;17.69;49.13
77454;BME280;66538;53.150;18.160;2023-05-29T06:43:41;101703.86;;;17.77;48.84
77454;BME280;66538;53.150;18.160;2023-05-29T06:46:09;101703.46;;;17.82;48.50
77454;BME280;66538;53.150;18.160;2023-05-29T06:48:37;101707.16;;;17.86;48.47
77454;BME280;66538;53.150;18.160;2023-05-29T06:51:04;101712.02;;;17.93;48.45
77454;BME280;66538;53.150;18.160;2023-05-29T06:53:41;101706.66;;;18.00;48.48
77454;BME280;66538;53.150;18.160;2023-05-29T06:56:09;101706.31;;;18.05;48.42
77454;BME280;66538;53.150;18.160;2023-05-29T06:58:36;101700.38;;;18.10;48.60
77454;BME280;66538;53.150;18.160;2023-05-29T07:01:02;101695.44;;;18.18;48.62
77454;BME280;66538;53.150;18.160;2023-05-29T07:03:33;101705.30;;;18.32;48.53
77454;BME280;66538;53.150;18.160;2023-05-29T07:06:01;101711.58;;;18.40;48.42
77454;BME280;66538;53.150;18.160;2023-05-29T07:08:28;101712.84;;;18.46;48.32
77454;BME280;66538;53.150;18.160;2023-05-29T07:10:55;101716.18;;;18.51;48.25
77454;BME280;66538;53.150;18.160;2023-05-29T07:13:24;101716.68;;;18.57;48.08
77454;BME280;66538;53.150;18.160;2023-05-29T07:15:51;101722.18;;;18.65;47.96
77454;BME280;66538;53.150;18.160;2023-05-29T07:18:21;101723.22;;;18.75;47.81
77454;BME280;66538;53.150;18.160;2023-05-29T07:20:48;101726.97;;;18.86;47.31
77454;BME280;66538;53.150;18.160;2023-05-29T07:23:17;101727.71;;;18.94;45.94
77454;BME280;66538;53.150;18.160;2023-05-29T07:25:43;101724.77;;;18.96;46.40
77454;BME280;66538;53.150;18.160;2023-05-29T07:28:10;101729.69;;;18.98;46.48
77454;BME280;66538;53.150;18.160;2023-05-29T07:30:37;101735.39;;;19.04;45.92
77454;BME280;66538;53.150;18.160;2023-05-29T07:33:04;101733.06;;;19.10;46.15
77454;BME280;66538;53.150;18.160;2023-05-29T07:35:31;101733.64;;;19.18;46.42
77454;BME280;66538;53.150;18.160;2023-05-29T07:38:00;101736.11;;;19.30;46.47
77454;BME280;66538;53.150;18.160;2023-05-29T07:40:27;101738.90;;;19.37;46.15
77454;BME280;66538;53.150;18.160;2023-05-29T07:42:59;101741.58;;;19.42;45.77
77454;BME280;66538;53.150;18.160;2023-05-29T07:45:32;101739.69;;;19.42;45.89
77454;BME280;66538;53.150;18.160;2023-05-29T07:47:59;101743.30;;;19.46;45.64
77454;BME280;66538;53.150;18.160;2023-05-29T07:50:27;101747.83;;;19.49;45.34
77454;BME280;66538;53.150;18.160;2023-05-29T07:52:54;101743.68;;;19.50;45.01
77454;BME280;66538;53.150;18.160;2023-05-29T07:55:22;101744.85;;;19.52;45.21
77454;BME280;66538;53.150;18.160;2023-05-29T07:57:50;101742.70;;;19.58;45.22
77454;BME280;66538;53.150;18.160;2023-05-29T08:00:16;101743.53;;;19.67;44.94
77454;BME280;66538;53.150;18.160;2023-05-29T08:02:46;101743.90;;;19.77;44.79
77454;BME280;66538;53.150;18.160;2023-05-29T08:05:36;101740.08;;;19.86;44.50
77454;BME280;66538;53.150;18.160;2023-05-29T08:08:08;101741.88;;;19.92;44.10
77454;BME280;66538;53.150;18.160;2023-05-29T08:10:35;101741.57;;;20.05;43.66
77454;BME280;66538;53.150;18.160;2023-05-29T08:13:02;101745.80;;;20.17;43.29
77454;BME280;66538;53.150;18.160;2023-05-29T08:15:30;101747.45;;;20.20;42.79
77454;BME280;66538;53.150;18.160;2023-05-29T08:17:58;101745.67;;;20.21;42.63
77454;BME280;66538;53.150;18.160;2023-05-29T08:20:24;101743.38;;;20.20;42.71
77454;BME280;66538;53.150;18.160;2023-05-29T08:22:51;101744.73;;;20.23;42.80
77454;BME280;66538;53.150;18.160;2023-05-29T08:25:18;101745.83;;;20.24;42.64
77454;BME280;66538;53.150;18.160;2023-05-29T08:27:44;101751.39;;;20.27;42.64
77454;BME280;66538;53.150;18.160;2023-05-29T08:30:12;101750.64;;;20.23;42.24
77454;BME280;66538;53.150;18.160;2023-05-29T08:32:39;101749.45;;;20.19;42.92
77454;BME280;66538;53.150;18.160;2023-05-29T08:35:06;101747.20;;;20.27;43.01
77454;BME280;66538;53.150;18.160;2023-05-29T08:37:32;101745.92;;;20.38;42.54
77454;BME280;66538;53.150;18.160;2023-05-29T08:39:59;101749.83;;;20.48;41.83
77454;BME280;66538;53.150;18.160;2023-05-29T08:42:29;101747.13;;;20.55;41.54
77454;BME280;66538;53.150;18.160;2023-05-29T08:45:02;101750.27;;;20.63;40.94
77454;BME280;66538;53.150;18.160;2023-05-29T08:47:33;101748.36;;;20.64;40.72
77454;BME280;66538;53.150;18.160;2023-05-29T08:50:01;101744.20;;;20.65;40.68
77454;BME280;66538;53.150;18.160;2023-05-29T08:52:29;101742.55;;;20.73;40.79
77454;BME280;66538;53.150;18.160;2023-05-29T08:55:01;101751.28;;;20.88;40.57
77454;BME280;66538;53.150;18.160;2023-05-29T08:57:29;101752.64;;;21.01;40.32
77454;BME280;66538;53.150;18.160;2023-05-29T08:59:57;101752.23;;;21.13;40.09
77454;BME280;66538;53.150;18.160;2023-05-29T09:02:24;101747.39;;;21.21;39.63
77454;BME280;66538;53.150;18.160;2023-05-29T09:04:51;101748.66;;;21.34;39.56
77454;BME280;66538;53.150;18.160;2023-05-29T09:07:23;101743.81;;;21.52;39.64
77454;BME280;66538;53.150;18.160;2023-05-29T09:09:51;101746.08;;;21.71;38.95
77454;BME280;66538;53.150;18.160;2023-05-29T09:12:18;101746.02;;;21.85;38.65
77454;BME280;66538;53.150;18.160;2023-05-29T09:14:45;101746.23;;;21.97;38.81
77454;BME280;66538;53.150;18.160;2023-05-29T09:17:13;101742.48;;;22.14;38.55
77454;BME280;66538;53.150;18.160;2023-05-29T09:19:40;101749.75;;;22.28;38.09
77454;BME280;66538;53.150;18.160;2023-05-29T09:22:12;101755.26;;;22.29;37.95
77454;BME280;66538;53.150;18.160;2023-05-29T09:24:46;101755.52;;;22.33;37.48
77454;BME280;66538;53.150;18.160;2023-05-29T09:27:13;101752.80;;;22.50;37.02
77454;BME280;66538;53.150;18.160;2023-05-29T09:29:41;101751.57;;;22.74;36.85
77454;BME280;66538;53.150;18.160;2023-05-29T09:32:09;101746.13;;;22.93;36.58
77454;BME280;66538;53.150;18.160;2023-05-29T09:34:36;101749.40;;;22.99;36.54
77454;BME280;66538;53.150;18.160;2023-05-29T09:37:05;101750.77;;;23.08;36.57
77454;BME280;66538;53.150;18.160;2023-05-29T09:39:45;101755.71;;;23.11;36.18
77454;BME280;66538;53.150;18.160;2023-05-29T09:42:13;101753.18;;;23.00;35.83
77454;BME280;66538;53.150;18.160;2023-05-29T09:44:41;101748.58;;;22.86;35.73
77454;BME280;66538;53.150;18.160;2023-05-29T09:47:07;101746.77;;;22.74;36.06
77454;BME280;66538;53.150;18.160;2023-05-29T09:49:40;101746.56;;;22.70;35.96
77454;BME280;66538;53.150;18.160;2023-05-29T09:52:07;101745.34;;;22.66;36.27
77454;BME280;66538;53.150;18.160;2023-05-29T09:54:35;101740.46;;;22.69;36.11
77454;BME280;66538;53.150;18.160;2023-05-29T09:57:03;101734.96;;;22.74;36.05
77454;BME280;66538;53.150;18.160;2023-05-29T09:59:32;101735.09;;;22.92;35.67
77454;BME280;66538;53.150;18.160;2023-05-29T10:02:02;101737.15;;;23.06;35.41
77454;BME280;66538;53.150;18.160;2023-05-29T10:04:33;101736.17;;;23.15;35.19
77454;BME280;66538;53.150;18.160;2023-05-29T10:07:05;101740.58;;;23.14;34.53
77454;BME280;66538;53.150;18.160;2023-05-29T10:09:38;101739.85;;;23.01;34.75
77454;BME280;66538;53.150;18.160;2023-05-29T10:12:08;101735.64;;;22.91;34.53
77454;BME280;66538;53.150;18.160;2023-05-29T10:14:36;101734.48;;;22.88;34.57
77454;BME280;66538;53.150;18.160;2023-05-29T10:17:07;101732.06;;;22.85;34.64
77454;BME280;66538;53.150;18.160;2023-05-29T10:19:36;101729.16;;;22.93;34.70
77454;BME280;66538;53.150;18.160;2023-05-29T10:22:05;101729.34;;;23.10;34.34
77454;BME280;66538;53.150;18.160;2023-05-29T10:24:35;101727.58;;;23.34;33.82
77454;BME280;66538;53.150;18.160;2023-05-29T10:27:04;101724.88;;;23.52;33.50
77454;BME280;66538;53.150;18.160;2023-05-29T10:29:50;101720.59;;;23.59;33.44
77454;BME280;66538;53.150;18.160;2023-05-29T10:35:09;101722.29;;;23.56;33.79
77454;BME280;66538;53.150;18.160;2023-05-29T10:37:46;101719.52;;;23.43;33.96
77454;BME280;66538;53.150;18.160;2023-05-29T10:40:15;101721.60;;;23.38;34.13
77454;BME280;66538;53.150;18.160;2023-05-29T10:42:49;101726.73;;;23.33;34.26
77454;BME280;66538;53.150;18.160;2023-05-29T10:50:46;101720.24;;;23.24;34.09
77454;BME280;66538;53.150;18.160;2023-05-29T10:53:18;101719.36;;;23.34;34.06
77454;BME280;66538;53.150;18.160;2023-05-29T10:55:50;101714.71;;;23.49;33.83
77454;BME280;66538;53.150;18.160;2023-05-29T10:58:21;101710.86;;;23.61;33.93
77454;BME280;66538;53.150;18.160;2023-05-29T11:00:53;101720.81;;;23.59;32.18
77454;BME280;66538;53.150;18.160;2023-05-29T11:03:23;101714.54;;;23.45;32.05
77454;BME280;66538;53.150;18.160;2023-05-29T11:06:01;101714.67;;;23.45;31.81
77454;BME280;66538;53.150;18.160;2023-05-29T11:08:55;101712.00;;;23.51;31.63
77454;BME280;66538;53.150;18.160;2023-05-29T11:11:30;101710.52;;;23.64;31.42
77454;BME280;66538;53.150;18.160;2023-05-29T11:14:01;101706.50;;;23.82;31.49
77454;BME280;66538;53.150;18.160;2023-05-29T11:19:03;101706.39;;;23.97;31.49
77454;BME280;66538;53.150;18.160;2023-05-29T11:24:01;101710.98;;;23.77;30.46
77454;BME280;66538;53.150;18.160;2023-05-29T11:26:33;101708.87;;;23.70;30.92
77454;BME280;66538;53.150;18.160;2023-05-29T11:29:02;101709.88;;;23.86;30.82
77454;BME280;66538;53.150;18.160;2023-05-29T11:31:32;101706.25;;;24.05;30.32
77454;BME280;66538;53.150;18.160;2023-05-29T11:34:01;101696.30;;;24.31;30.14
77454;BME280;66538;53.150;18.160;2023-05-29T11:36:31;101696.93;;;24.50;29.10
77454;BME280;66538;53.150;18.160;2023-05-29T11:38:59;101693.38;;;24.58;28.71
77454;BME280;66538;53.150;18.160;2023-05-29T11:41:27;101695.23;;;24.55;28.65
77454;BME280;66538;53.150;18.160;2023-05-29T11:44:01;101688.65;;;24.61;28.87
77454;BME280;66538;53.150;18.160;2023-05-29T11:46:29;101683.75;;;24.68;28.73
77454;BME280;66538;53.150;18.160;2023-05-29T11:49:00;101682.86;;;24.80;28.56
77454;BME280;66538;53.150;18.160;2023-05-29T11:51:27;101682.14;;;25.05;28.13
77454;BME280;66538;53.150;18.160;2023-05-29T11:53:54;101674.29;;;25.34;27.90
77454;BME280;66538;53.150;18.160;2023-05-29T11:56:25;101678.33;;;25.51;27.87
77454;BME280;66538;53.150;18.160;2023-05-29T11:58:54;101678.84;;;25.81;27.13
77454;BME280;66538;53.150;18.160;2023-05-29T12:01:26;101671.13;;;26.07;27.36
77454;BME280;66538;53.150;18.160;2023-05-29T12:03:53;101672.92;;;26.30;26.56
77454;BME280;66538;53.150;18.160;2023-05-29T12:06:31;101671.73;;;26.31;26.78
77454;BME280;66538;53.150;18.160;2023-05-29T12:08:58;101673.80;;;26.23;26.69
77454;BME280;66538;53.150;18.160;2023-05-29T12:11:25;101671.36;;;26.16;26.73
77454;BME280;66538;53.150;18.160;2023-05-29T12:13:59;101664.96;;;26.13;26.56
77454;BME280;66538;53.150;18.160;2023-05-29T12:16:30;101661.95;;;26.18;26.47
77454;BME280;66538;53.150;18.160;2023-05-29T12:18:57;101664.07;;;26.40;26.02
77454;BME280;66538;53.150;18.160;2023-05-29T12:21:26;101661.70;;;26.57;25.85
77454;BME280;66538;53.150;18.160;2023-05-29T12:23:53;101658.42;;;26.63;26.04
77454;BME280;66538;53.150;18.160;2023-05-29T12:26:24;101660.08;;;26.76;25.28
77454;BME280;66538;53.150;18.160;2023-05-29T12:28:52;101657.83;;;26.83;24.96
77454;BME280;66538;53.150;18.160;2023-05-29T12:31:29;101661.41;;;26.90;24.72
77454;BME280;66538;53.150;18.160;2023-05-29T12:34:01;101658.44;;;26.91;24.51
77454;BME280;66538;53.150;18.160;2023-05-29T12:36:28;101653.83;;;26.85;24.46
77454;BME280;66538;53.150;18.160;2023-05-29T12:38:55;101658.39;;;26.92;24.78
77454;BME280;66538;53.150;18.160;2023-05-29T12:41:34;101655.60;;;27.06;24.77
77454;BME280;66538;53.150;18.160;2023-05-29T12:44:03;101658.02;;;27.19;24.56
77454;BME280;66538;53.150;18.160;2023-05-29T12:46:41;101652.50;;;27.21;24.43
77454;BME280;66538;53.150;18.160;2023-05-29T12:49:20;101650.75;;;27.35;24.46
77454;BME280;66538;53.150;18.160;2023-05-29T12:51:47;101653.73;;;27.61;24.38
77454;BME280;66538;53.150;18.160;2023-05-29T12:54:15;101658.43;;;27.93;23.71
77454;BME280;66538;53.150;18.160;2023-05-29T12:56:42;101657.52;;;28.15;23.54
77454;BME280;66538;53.150;18.160;2023-05-29T12:59:10;101645.88;;;28.43;23.20
77454;BME280;66538;53.150;18.160;2023-05-29T13:01:37;101644.64;;;28.90;22.84
77454;BME280;66538;53.150;18.160;2023-05-29T13:04:07;101637.83;;;28.81;22.15
77454;BME280;66538;53.150;18.160;2023-05-29T13:06:35;101641.63;;;28.87;22.07
77454;BME280;66538;53.150;18.160;2023-05-29T13:09:02;101643.34;;;29.53;21.73